Terminal Aerodrome Forecast
Issued by NWS Grand Forks, ND

Home | Current Version | Previous Version | Text Only | Print | Product List | Glossary On
Versions: 1 2 3 4 5 6 7 8 9 10 11 12 13 14 15 16 17 18 19 20 21 22 23 24 25
208
FTUS43 KFGF 210520
TAFGFK
TAF
KGFK 210520Z 2106/2206 17010KT P6SM SKC
     FM211200 16011KT P6SM BKN200 WS020/18040KT
     FM211400 17014KT P6SM BKN200
     FM220000 15009KT P6SM FEW200
     FM220200 20006KT P6SM FEW200
     FM220400 27005KT P6SM SCT150=

USA.gov is the U.S. government's official web portal to all federal, state and local government web resources and services.